createdAt,value
2018-06-10T00:00:38.796Z,10.67
2018-06-10T00:03:07.721Z,10.90
2018-06-10T00:05:36.526Z,10.13
2018-06-10T00:08:06.772Z,9.90
2018-06-10T00:10:35.585Z,9.40
2018-06-10T00:13:04.825Z,8.60
2018-06-10T00:15:34.513Z,9.50
2018-06-10T00:18:03.269Z,9.60
2018-06-10T00:20:32.114Z,9.00
2018-06-10T00:23:00.937Z,9.17
2018-06-10T00:25:29.682Z,8.00
2018-06-10T00:27:58.521Z,9.70
2018-06-10T00:30:27.310Z,8.30
2018-06-10T00:32:56.322Z,8.97
2018-06-10T00:35:25.636Z,7.70
2018-06-10T00:37:56.171Z,8.50
2018-06-10T00:40:24.985Z,7.93
2018-06-10T00:42:53.925Z,8.03
2018-06-10T00:45:22.863Z,8.37
2018-06-10T00:47:51.694Z,7.90
2018-06-10T00:50:20.506Z,8.00
2018-06-10T00:52:50.131Z,7.03
2018-06-10T00:55:19.119Z,7.13
2018-06-10T00:57:48.553Z,8.10
2018-06-10T01:00:17.522Z,8.60
2018-06-10T01:02:47.342Z,8.00
2018-06-10T01:05:16.186Z,8.90
2018-06-10T01:07:44.989Z,7.07
2018-06-10T01:10:14.419Z,8.77
2018-06-10T01:12:43.282Z,8.17
2018-06-10T01:15:12.756Z,7.60
2018-06-10T01:17:41.591Z,8.73
2018-06-10T01:20:10.511Z,7.93
2018-06-10T01:22:39.331Z,8.20
2018-06-10T01:25:12.004Z,7.20
2018-06-10T01:27:41.126Z,8.57
2018-06-10T01:30:09.952Z,8.40
2018-06-10T01:32:41.817Z,8.77
2018-06-10T01:35:12.520Z,9.47
2018-06-10T01:37:41.435Z,8.67
2018-06-10T01:40:10.167Z,8.10
2018-06-10T01:42:40.355Z,8.80
2018-06-10T01:45:09.288Z,7.60
2018-06-10T01:47:39.869Z,7.70
2018-06-10T01:50:08.702Z,8.17
2018-06-10T01:52:37.589Z,8.50
2018-06-10T01:55:06.461Z,8.40
2018-06-10T01:57:35.343Z,8.47
2018-06-10T02:00:04.195Z,9.00
2018-06-10T02:02:32.978Z,8.07
2018-06-10T02:05:03.398Z,8.43
2018-06-10T02:07:38.666Z,8.03
2018-06-10T02:10:13.779Z,8.20
2018-06-10T02:12:42.814Z,8.27
2018-06-10T02:15:12.808Z,8.87
2018-06-10T02:17:43.093Z,8.30
2018-06-10T02:20:12.028Z,8.13
2018-06-10T02:22:41.669Z,8.40
2018-06-10T02:25:10.545Z,8.20
2018-06-10T02:27:39.335Z,8.63
2018-06-10T02:30:09.394Z,8.77
2018-06-10T02:32:38.191Z,7.10
2018-06-10T02:35:08.090Z,7.23
2018-06-10T02:37:36.882Z,7.37
2018-06-10T02:40:07.183Z,6.73
2018-06-10T02:42:36.759Z,7.37
2018-06-10T02:45:05.632Z,10.20
2018-06-10T02:47:34.475Z,8.90
2018-06-10T02:50:03.305Z,8.90
2018-06-10T02:52:32.104Z,8.60
2018-06-10T02:55:00.907Z,8.67
2018-06-10T02:57:29.629Z,8.70
2018-06-10T02:59:59.469Z,9.20
2018-06-10T03:02:28.339Z,9.83
2018-06-10T03:04:57.171Z,8.97
2018-06-10T03:07:26.020Z,9.00
2018-06-10T03:09:54.836Z,9.73
2018-06-10T03:12:23.707Z,8.43
2018-06-10T03:14:52.549Z,8.80
2018-06-10T03:17:22.269Z,9.27
2018-06-10T03:19:51.247Z,9.03
2018-06-10T03:22:20.121Z,8.50
2018-06-10T03:24:48.958Z,9.73
2018-06-10T03:27:20.200Z,9.27
2018-06-10T03:29:49.036Z,8.77
2018-06-10T03:32:18.205Z,11.93
2018-06-10T03:34:47.281Z,10.50
2018-06-10T03:37:18.019Z,9.77
2018-06-10T03:39:46.846Z,9.30
2018-06-10T03:42:15.731Z,9.30
2018-06-10T03:44:44.654Z,10.30
2018-06-10T03:47:13.536Z,10.33
2018-06-10T03:49:43.254Z,10.20
2018-06-10T03:52:12.121Z,12.13
2018-06-10T03:54:41.051Z,11.40
2018-06-10T03:57:09.841Z,12.27
2018-06-10T03:59:49.545Z,11.87
2018-06-10T04:02:18.382Z,12.20
2018-06-10T04:04:47.346Z,11.07
2018-06-10T04:07:16.137Z,12.40
2018-06-10T04:09:44.934Z,11.20
2018-06-10T04:12:13.771Z,11.40
2018-06-10T04:14:42.636Z,10.80
2018-06-10T04:17:11.477Z,11.80
2018-06-10T04:19:40.294Z,11.07
2018-06-10T04:22:09.043Z,11.63
2018-06-10T04:24:37.934Z,10.63
2018-06-10T04:27:06.730Z,9.80
2018-06-10T04:29:35.590Z,10.40
2018-06-10T04:32:04.458Z,11.63
2018-06-10T04:34:33.274Z,9.97
2018-06-10T04:37:02.139Z,10.70
2018-06-10T04:39:30.987Z,10.53
2018-06-10T04:41:59.874Z,9.97
2018-06-10T04:44:28.652Z,11.23
2018-06-10T04:46:57.489Z,11.37
2018-06-10T04:49:26.322Z,11.43
2018-06-10T04:51:55.162Z,12.10
2018-06-10T04:57:07.937Z,10.80
2018-06-10T04:59:37.669Z,11.90
2018-06-10T05:02:06.476Z,10.80
2018-06-10T05:04:35.271Z,11.33
2018-06-10T05:07:07.771Z,11.07
2018-06-10T05:09:38.534Z,11.13
2018-06-10T05:12:07.431Z,10.63
2018-06-10T05:14:36.326Z,11.43
2018-06-10T05:17:05.262Z,10.70
2018-06-10T05:19:34.222Z,10.97
2018-06-10T05:22:03.182Z,11.57
2018-06-10T05:24:32.103Z,9.97
2018-06-10T05:27:00.943Z,10.47
2018-06-10T05:29:29.709Z,10.90
2018-06-10T05:31:58.521Z,11.70
2018-06-10T05:34:28.548Z,11.40
2018-06-10T05:36:57.644Z,11.53
2018-06-10T05:39:26.818Z,12.17
2018-06-10T05:41:56.028Z,10.17
2018-06-10T05:44:25.256Z,11.73
2018-06-10T05:46:54.099Z,10.30
2018-06-10T05:49:22.958Z,10.10
2018-06-10T05:51:51.809Z,12.17
2018-06-10T05:54:20.561Z,12.37
2018-06-10T05:56:49.276Z,17.13
2018-06-10T05:59:18.034Z,20.63
2018-06-10T06:01:46.936Z,19.70
2018-06-10T06:04:17.809Z,20.23
2018-06-10T06:06:46.610Z,19.43
2018-06-10T06:09:15.350Z,18.07
2018-06-10T06:11:43.670Z,16.93
2018-06-10T06:14:12.800Z,19.43
2018-06-10T06:16:41.243Z,19.30
2018-06-10T06:19:10.225Z,18.07
2018-06-10T06:21:38.623Z,22.00
2018-06-10T06:24:07.014Z,19.90
2018-06-10T06:26:40.935Z,21.27
2018-06-10T06:29:09.273Z,22.47
2018-06-10T06:31:37.639Z,23.40
2018-06-10T06:34:06.059Z,24.87
2018-06-10T06:36:34.496Z,26.63
2018-06-10T06:39:02.932Z,27.67
2018-06-10T06:41:31.241Z,28.60
2018-06-10T06:43:59.730Z,26.87
2018-06-10T06:46:28.112Z,27.37
2018-06-10T06:48:56.473Z,28.27
2018-06-10T06:51:36.194Z,28.00
2018-06-10T06:54:04.639Z,28.90
2018-06-10T06:56:33.023Z,28.70
2018-06-10T06:59:01.370Z,28.67
2018-06-10T07:01:29.700Z,32.47
2018-06-10T07:03:58.018Z,29.50
2018-06-10T07:06:26.467Z,28.13
2018-06-10T07:08:54.869Z,29.13
2018-06-10T07:11:23.321Z,29.77
2018-06-10T07:13:51.814Z,29.73
2018-06-10T07:16:20.148Z,25.97
2018-06-10T07:18:48.512Z,28.20
2018-06-10T07:21:16.889Z,28.10
2018-06-10T07:23:45.261Z,30.50
2018-06-10T07:26:13.927Z,26.33
2018-06-10T07:28:42.314Z,26.03
2018-06-10T07:31:10.920Z,27.00
2018-06-10T07:33:39.323Z,29.50
2018-06-10T07:36:07.739Z,25.90
2018-06-10T07:38:36.132Z,27.73
2018-06-10T07:41:04.498Z,31.03
2018-06-10T07:43:32.836Z,32.67
2018-06-10T07:46:01.168Z,32.87
2018-06-10T07:48:29.526Z,31.67
2018-06-10T07:50:57.997Z,30.70
2018-06-10T07:53:26.384Z,31.07
2018-06-10T07:55:54.733Z,27.93
2018-06-10T07:58:23.747Z,29.03
2018-06-10T08:00:52.443Z,31.83
2018-06-10T08:03:21.172Z,31.20
2018-06-10T08:05:50.147Z,28.30
2018-06-10T08:08:19.213Z,30.30
2018-06-10T08:10:48.072Z,29.70
2018-06-10T08:13:18.587Z,34.87
2018-06-10T08:15:48.987Z,33.70
2018-06-10T08:18:17.861Z,33.97
2018-06-10T08:20:48.006Z,36.00
2018-06-10T08:23:19.077Z,36.90
2018-06-10T08:25:48.514Z,36.20
2018-06-10T08:28:17.702Z,36.13
2018-06-10T08:30:47.039Z,39.90
2018-06-10T08:33:16.275Z,37.50
2018-06-10T08:35:45.273Z,35.67
2018-06-10T08:38:14.965Z,39.20
2018-06-10T08:40:43.865Z,42.03
2018-06-10T08:43:13.157Z,42.43
2018-06-10T08:45:41.925Z,46.60
2018-06-10T08:48:10.791Z,41.47
2018-06-10T08:50:39.497Z,42.93
2018-06-10T08:53:08.372Z,43.30
2018-06-10T08:55:37.108Z,45.13
2018-06-10T08:58:06.142Z,43.47
2018-06-10T09:00:34.971Z,43.77
2018-06-10T09:03:04.118Z,44.37
2018-06-10T09:05:33.091Z,43.13
2018-06-10T09:08:01.934Z,45.63
2018-06-10T09:10:30.782Z,45.80
2018-06-10T09:12:59.650Z,47.70
2018-06-10T09:15:28.499Z,49.30
2018-06-10T09:17:57.386Z,45.70
2018-06-10T09:20:26.672Z,50.47
2018-06-10T09:22:55.441Z,52.30
2018-06-10T09:25:24.262Z,49.33
2018-06-10T09:27:53.167Z,44.60
2018-06-10T09:30:21.943Z,48.63
2018-06-10T09:32:50.813Z,48.30
2018-06-10T09:35:19.816Z,44.90
2018-06-10T09:37:49.718Z,42.20
2018-06-10T09:40:18.858Z,46.80
2018-06-10T09:42:47.700Z,45.70
2018-06-10T09:47:52.397Z,48.80
2018-06-10T09:50:21.889Z,46.20
2018-06-10T09:52:50.778Z,47.13
2018-06-10T09:55:19.754Z,46.47
2018-06-10T09:57:48.680Z,48.27
2018-06-10T10:00:24.690Z,46.57
2018-06-10T10:02:54.148Z,47.07
2018-06-10T10:05:23.319Z,46.77
2018-06-10T10:07:52.115Z,49.00
2018-06-10T10:10:21.049Z,46.13
2018-06-10T10:12:49.977Z,48.70
2018-06-10T10:15:18.821Z,46.00
2018-06-10T10:17:47.729Z,49.03
2018-06-10T10:20:16.627Z,49.03
2018-06-10T10:22:46.200Z,45.77
2018-06-10T10:25:15.065Z,43.43
2018-06-10T10:27:43.918Z,44.63
2018-06-10T10:30:12.719Z,44.80
2018-06-10T10:32:41.391Z,41.53
2018-06-10T10:35:10.272Z,42.83
2018-06-10T10:37:39.023Z,41.20
2018-06-10T10:40:07.922Z,38.97
2018-06-10T10:42:36.765Z,38.90
2018-06-10T10:45:05.639Z,39.97
2018-06-10T10:47:34.488Z,40.73
2018-06-10T10:50:05.128Z,39.20
2018-06-10T10:52:33.935Z,37.77
2018-06-10T10:55:02.749Z,41.77
2018-06-10T10:57:31.861Z,38.40
2018-06-10T11:00:00.819Z,40.80
2018-06-10T11:02:29.691Z,39.80
2018-06-10T11:04:58.544Z,41.77
2018-06-10T11:07:27.438Z,39.17
2018-06-10T11:09:56.197Z,46.43
2018-06-10T11:12:24.974Z,42.10
2018-06-10T11:14:53.790Z,43.60
2018-06-10T11:17:22.910Z,43.90
2018-06-10T11:19:51.702Z,43.33
2018-06-10T11:22:20.565Z,44.47
2018-06-10T11:24:49.427Z,43.60
2018-06-10T11:27:18.213Z,41.73
2018-06-10T11:29:47.153Z,43.77
2018-06-10T11:32:15.976Z,42.70
2018-06-10T11:34:44.860Z,42.70
2018-06-10T11:37:13.748Z,41.20
2018-06-10T11:39:42.625Z,41.73
2018-06-10T11:42:11.453Z,43.70
2018-06-10T11:44:40.406Z,44.63
2018-06-10T11:47:09.683Z,43.33
2018-06-10T11:49:38.400Z,41.90
2018-06-10T11:52:07.226Z,41.60
2018-06-10T11:54:36.252Z,42.20
2018-06-10T11:57:05.183Z,40.73
2018-06-10T11:59:34.021Z,42.10
2018-06-10T12:02:02.856Z,39.70
2018-06-10T12:04:31.702Z,40.10
2018-06-10T12:07:00.634Z,37.80
2018-06-10T12:09:29.493Z,38.53
2018-06-10T12:11:58.378Z,38.47
2018-06-10T12:14:27.201Z,41.57
2018-06-10T12:16:55.910Z,40.30
2018-06-10T12:19:24.651Z,39.03
2018-06-10T12:21:53.349Z,43.70
2018-06-10T12:24:22.354Z,43.40
2018-06-10T12:26:51.941Z,44.10
2018-06-10T12:29:20.805Z,44.57
2018-06-10T12:31:49.958Z,41.60
2018-06-10T12:34:18.753Z,40.67
2018-06-10T12:36:47.643Z,48.63
2018-06-10T12:39:16.490Z,45.00
2018-06-10T12:41:45.340Z,44.90
2018-06-10T12:44:14.202Z,43.47
2018-06-10T12:46:43.238Z,47.07
2018-06-10T12:49:12.342Z,45.13
2018-06-10T12:51:41.326Z,45.60
2018-06-10T12:54:10.200Z,44.83
2018-06-10T12:56:39.008Z,45.10
2018-06-10T12:59:07.878Z,44.30
2018-06-10T13:01:36.721Z,44.90
2018-06-10T13:04:05.522Z,47.90
2018-06-10T13:06:34.305Z,46.17
2018-06-10T13:09:06.553Z,44.47
2018-06-10T13:11:35.640Z,50.53
2018-06-10T13:14:04.664Z,49.80
2018-06-10T13:16:33.585Z,45.87
2018-06-10T13:19:02.306Z,44.30
2018-06-10T13:21:31.519Z,41.03
2018-06-10T13:24:00.289Z,39.80
2018-06-10T13:26:29.099Z,38.07
2018-06-10T13:28:57.752Z,37.00
2018-06-10T13:31:26.575Z,37.20
2018-06-10T13:33:55.410Z,37.60
2018-06-10T13:36:24.201Z,36.70
2018-06-10T13:38:52.974Z,36.53
2018-06-10T13:41:21.771Z,39.10
2018-06-10T13:43:50.682Z,37.17
2018-06-10T13:46:19.485Z,35.73
2018-06-10T13:48:48.288Z,40.57
2018-06-10T13:51:18.091Z,36.70
2018-06-10T13:53:46.970Z,36.60
2018-06-10T13:56:16.086Z,36.50
2018-06-10T13:58:44.848Z,37.37
2018-06-10T14:01:13.842Z,40.20
2018-06-10T14:03:42.748Z,41.97
2018-06-10T14:06:11.511Z,39.50
2018-06-10T14:08:40.447Z,36.80
2018-06-10T14:11:09.256Z,41.27
2018-06-10T14:13:37.975Z,37.40
2018-06-10T14:16:06.930Z,33.80
2018-06-10T14:18:35.735Z,39.30
2018-06-10T14:21:05.096Z,37.10
2018-06-10T14:23:34.001Z,35.27
2018-06-10T14:26:02.806Z,35.83
2018-06-10T14:28:31.691Z,34.23
2018-06-10T14:31:00.514Z,41.57
2018-06-10T14:33:29.354Z,38.57
2018-06-10T14:35:58.664Z,38.27
2018-06-10T14:38:27.498Z,39.53
2018-06-10T14:40:56.292Z,36.40
2018-06-10T14:43:25.085Z,35.37
2018-06-10T14:45:53.972Z,37.10
2018-06-10T14:48:22.814Z,35.07
2018-06-10T14:50:51.627Z,37.90
2018-06-10T14:53:20.483Z,35.57
2018-06-10T14:55:49.186Z,34.67
2018-06-10T14:58:18.017Z,37.23
2018-06-10T15:00:46.771Z,39.00
2018-06-10T15:03:15.559Z,33.67
2018-06-10T15:05:44.296Z,34.73
2018-06-10T15:08:13.088Z,32.70
2018-06-10T15:10:41.946Z,29.17
2018-06-10T15:13:10.767Z,30.20
2018-06-10T15:15:39.458Z,27.87
2018-06-10T15:18:08.307Z,27.40
2018-06-10T15:20:37.080Z,28.10
2018-06-10T15:23:05.840Z,28.83
2018-06-10T15:25:34.729Z,29.03
2018-06-10T15:28:03.461Z,26.80
2018-06-10T15:30:32.364Z,26.80
2018-06-10T15:33:01.225Z,28.03
2018-06-10T15:35:29.982Z,30.60
2018-06-10T15:37:58.734Z,30.20
2018-06-10T15:40:27.503Z,27.90
2018-06-10T15:42:56.529Z,29.07
2018-06-10T15:45:25.347Z,29.63
2018-06-10T15:47:54.144Z,29.70
2018-06-10T15:50:23.006Z,32.27
2018-06-10T15:52:51.813Z,30.90
2018-06-10T15:58:12.877Z,30.93
2018-06-10T16:00:41.662Z,30.30
2018-06-10T16:03:10.571Z,32.47
2018-06-10T16:05:39.326Z,32.10
2018-06-10T16:08:08.084Z,28.30
2018-06-10T16:10:36.956Z,32.23
2018-06-10T16:13:05.749Z,28.97
2018-06-10T16:15:35.141Z,31.10
2018-06-10T16:18:03.899Z,28.97
2018-06-10T16:20:32.945Z,32.83
2018-06-10T16:23:01.771Z,33.17
2018-06-10T16:25:30.946Z,32.83
2018-06-10T16:27:59.829Z,33.27
2018-06-10T16:30:28.682Z,31.70
2018-06-10T16:32:57.516Z,33.17
2018-06-10T16:35:26.325Z,29.80
2018-06-10T16:37:54.989Z,29.03
2018-06-10T16:40:23.857Z,27.77
2018-06-10T16:42:52.926Z,29.10
2018-06-10T16:45:21.728Z,29.00
2018-06-10T16:47:50.685Z,27.00
2018-06-10T16:50:19.482Z,29.23
2018-06-10T16:52:52.240Z,31.20
2018-06-10T16:55:21.047Z,30.40
2018-06-10T16:57:57.001Z,28.53
2018-06-10T17:00:25.844Z,29.67
2018-06-10T17:02:54.711Z,27.57
2018-06-10T17:05:24.268Z,30.07
2018-06-10T17:07:53.100Z,29.60
2018-06-10T17:10:21.934Z,25.63
2018-06-10T17:13:00.880Z,26.80
2018-06-10T17:15:30.116Z,26.20
2018-06-10T17:17:59.009Z,26.93
2018-06-10T17:20:27.832Z,25.60
2018-06-10T17:22:57.366Z,26.60
2018-06-10T17:25:26.243Z,25.77
2018-06-10T17:27:55.007Z,24.10
2018-06-10T17:30:23.862Z,26.73
2018-06-10T17:32:52.566Z,25.93
2018-06-10T17:35:21.613Z,24.73
2018-06-10T17:37:50.881Z,22.00
2018-06-10T17:40:19.789Z,21.70
2018-06-10T17:42:48.598Z,19.30
2018-06-10T17:45:17.671Z,21.53
2018-06-10T17:47:49.031Z,18.70
2018-06-10T17:50:17.790Z,19.70
2018-06-10T17:52:46.883Z,20.33
2018-06-10T17:55:16.363Z,18.60
2018-06-10T17:57:45.128Z,18.73
2018-06-10T18:03:16.551Z,18.80
2018-06-10T18:05:46.052Z,17.97
2018-06-10T18:08:15.093Z,19.50
2018-06-10T18:10:43.942Z,19.73
2018-06-10T18:13:15.203Z,17.00
2018-06-10T18:15:45.691Z,18.47
2018-06-10T18:18:15.217Z,16.97
2018-06-10T18:20:44.058Z,19.10
2018-06-10T18:23:12.870Z,15.90
2018-06-10T18:25:41.723Z,17.50
2018-06-10T18:28:10.600Z,15.90
2018-06-10T18:30:39.474Z,18.20
2018-06-10T18:33:08.441Z,16.37
2018-06-10T18:35:37.293Z,17.00
2018-06-10T18:38:13.666Z,16.80
2018-06-10T18:40:44.973Z,15.20
2018-06-10T18:43:19.361Z,15.80
2018-06-10T18:55:25.093Z,15.37
2018-06-10T18:57:54.119Z,17.00
2018-06-10T19:00:22.979Z,16.43
2018-06-10T19:02:51.758Z,14.27
2018-06-10T19:05:20.591Z,15.70
2018-06-10T19:07:49.387Z,16.50
2018-06-10T19:10:18.461Z,17.60
2018-06-10T19:12:47.488Z,15.20
2018-06-10T19:15:16.411Z,15.67
2018-06-10T19:17:45.153Z,15.90
2018-06-10T19:20:14.041Z,15.93
2018-06-10T19:22:42.841Z,15.17
2018-06-10T19:25:11.719Z,16.10
2018-06-10T19:27:40.434Z,15.27
2018-06-10T19:30:09.233Z,16.07
2018-06-10T19:32:38.003Z,16.27
2018-06-10T19:35:06.756Z,15.83
2018-06-10T19:37:35.586Z,16.67
2018-06-10T19:40:04.700Z,17.53
2018-06-10T19:42:33.685Z,17.20
2018-06-10T19:45:02.530Z,14.40
2018-06-10T19:47:33.205Z,17.07
2018-06-10T19:50:02.018Z,16.10
2018-06-10T19:52:33.564Z,16.70
2018-06-10T19:55:02.421Z,16.17
2018-06-10T19:57:31.260Z,15.93
2018-06-10T20:00:00.029Z,15.03
2018-06-10T20:02:29.008Z,16.83
2018-06-10T20:04:57.806Z,15.70
2018-06-10T20:07:26.837Z,16.37
2018-06-10T20:12:35.957Z,17.00
2018-06-10T20:15:04.852Z,17.13
2018-06-10T20:17:34.302Z,15.17
2018-06-10T20:20:03.157Z,17.87
2018-06-10T20:22:32.176Z,16.67
2018-06-10T20:25:01.034Z,16.97
2018-06-10T20:27:31.894Z,15.83
2018-06-10T20:33:03.354Z,18.93
2018-06-10T20:35:32.632Z,19.30
2018-06-10T20:38:01.931Z,19.23
2018-06-10T20:40:31.071Z,18.90
2018-06-10T20:43:00.104Z,17.43
2018-06-10T20:45:29.261Z,16.80
2018-06-10T20:47:58.349Z,16.50
2018-06-10T20:50:27.135Z,17.07
2018-06-10T20:52:56.003Z,20.20
2018-06-10T20:55:25.348Z,17.70
2018-06-10T20:57:54.268Z,18.87
2018-06-10T21:00:23.350Z,16.53
2018-06-10T21:02:52.188Z,18.57
2018-06-10T21:05:21.100Z,17.07
2018-06-10T21:07:50.397Z,16.93
2018-06-10T21:10:19.735Z,17.17
2018-06-10T21:12:48.671Z,17.90
2018-06-10T21:15:17.605Z,17.77
2018-06-10T21:17:46.461Z,16.97
2018-06-10T21:20:15.312Z,16.80
2018-06-10T21:22:44.397Z,15.80
2018-06-10T21:25:13.263Z,16.87
2018-06-10T21:27:42.409Z,18.60
2018-06-10T21:30:11.278Z,16.53
2018-06-10T21:32:40.618Z,18.13
2018-06-10T21:35:09.650Z,17.00
2018-06-10T21:37:38.527Z,17.07
2018-06-10T21:40:07.767Z,16.70
2018-06-10T21:42:36.668Z,18.67
2018-06-10T21:45:05.548Z,16.17
2018-06-10T21:47:34.663Z,15.77
2018-06-10T21:50:03.716Z,18.80
2018-06-10T21:52:32.626Z,16.70
2018-06-10T21:55:01.482Z,16.90
2018-06-10T21:57:30.623Z,17.63
2018-06-10T21:59:59.411Z,19.30
2018-06-10T22:02:28.161Z,18.23
2018-06-10T22:04:56.945Z,18.40
2018-06-10T22:07:25.903Z,17.53
2018-06-10T22:09:54.688Z,18.10
2018-06-10T22:12:23.613Z,16.43
2018-06-10T22:14:52.503Z,17.20
2018-06-10T22:17:21.409Z,16.70
2018-06-10T22:19:50.179Z,15.23
2018-06-10T22:22:19.280Z,15.70
2018-06-10T22:24:48.133Z,16.53
2018-06-10T22:27:17.036Z,16.03
2018-06-10T22:29:45.918Z,15.37
2018-06-10T22:32:14.767Z,17.37
2018-06-10T22:34:43.957Z,17.90
2018-06-10T22:37:12.770Z,16.80
2018-06-10T22:39:41.623Z,16.60
2018-06-10T22:42:10.478Z,15.70
2018-06-10T22:44:39.303Z,16.67
2018-06-10T22:47:08.279Z,16.97
2018-06-10T22:49:37.095Z,17.80
2018-06-10T22:52:06.901Z,15.67
2018-06-10T22:54:41.799Z,18.67
2018-06-10T22:57:11.409Z,17.63
2018-06-10T22:59:40.302Z,17.70
2018-06-10T23:02:10.074Z,17.27
2018-06-10T23:04:39.025Z,17.30
2018-06-10T23:07:07.856Z,18.90
2018-06-10T23:09:36.777Z,18.90
2018-06-10T23:12:05.593Z,19.07
2018-06-10T23:14:34.396Z,19.23
2018-06-10T23:17:03.552Z,17.70
2018-06-10T23:19:32.301Z,19.17
2018-06-10T23:22:01.116Z,18.77
2018-06-10T23:24:29.930Z,19.00
2018-06-10T23:26:58.700Z,20.40
2018-06-10T23:29:27.509Z,18.47
2018-06-10T23:31:56.395Z,21.23
2018-06-10T23:34:25.531Z,17.40
2018-06-10T23:36:54.207Z,18.43
2018-06-10T23:39:23.087Z,17.70
2018-06-10T23:41:51.909Z,20.53
2018-06-10T23:44:20.708Z,16.03
2018-06-10T23:46:49.702Z,17.87
2018-06-10T23:49:18.532Z,19.00
2018-06-10T23:51:47.277Z,19.87
2018-06-10T23:54:16.068Z,18.47
2018-06-10T23:56:44.838Z,21.73
2018-06-10T23:59:13.988Z,20.50
